sensor_id;sensor_type;location;lat;lon;timestamp;P1;durP1;ratioP1;P2;durP2;ratioP2
2326;SDS011;1174;51.588;7.328;2022-07-04T00:01:22;3.33;;;1.30;;
2326;SDS011;1174;51.588;7.328;2022-07-04T00:03:49;3.83;;;1.67;;
2326;SDS011;1174;51.588;7.328;2022-07-04T00:06:16;2.27;;;1.77;;
2326;SDS011;1174;51.588;7.328;2022-07-04T00:08:44;2.53;;;1.20;;
2326;SDS011;1174;51.588;7.328;2022-07-04T00:11:11;1.93;;;1.20;;
2326;SDS011;1174;51.588;7.328;2022-07-04T00:13:38;3.40;;;1.20;;
2326;SDS011;1174;51.588;7.328;2022-07-04T00:16:05;2.20;;;1.37;;
2326;SDS011;1174;51.588;7.328;2022-07-04T00:18:32;1.53;;;1.20;;
2326;SDS011;1174;51.588;7.328;2022-07-04T00:20:59;1.77;;;1.40;;
2326;SDS011;1174;51.588;7.328;2022-07-04T00:23:26;2.37;;;1.10;;
2326;SDS011;1174;51.588;7.328;2022-07-04T00:25:54;1.60;;;1.40;;
2326;SDS011;1174;51.588;7.328;2022-07-04T00:28:21;1.40;;;1.30;;
2326;SDS011;1174;51.588;7.328;2022-07-04T00:30:48;3.03;;;1.23;;
2326;SDS011;1174;51.588;7.328;2022-07-04T00:33:15;1.30;;;1.03;;
2326;SDS011;1174;51.588;7.328;2022-07-04T00:35:41;1.43;;;1.10;;
2326;SDS011;1174;51.588;7.328;2022-07-04T00:38:08;1.70;;;1.20;;
2326;SDS011;1174;51.588;7.328;2022-07-04T00:40:35;1.97;;;1.40;;
2326;SDS011;1174;51.588;7.328;2022-07-04T00:43:05;2.47;;;1.50;;
2326;SDS011;1174;51.588;7.328;2022-07-04T00:45:32;1.90;;;1.70;;
2326;SDS011;1174;51.588;7.328;2022-07-04T00:47:59;6.10;;;1.97;;
2326;SDS011;1174;51.588;7.328;2022-07-04T00:50:25;1.80;;;1.07;;
2326;SDS011;1174;51.588;7.328;2022-07-04T00:52:53;1.47;;;1.37;;
2326;SDS011;1174;51.588;7.328;2022-07-04T00:55:21;1.70;;;1.10;;
2326;SDS011;1174;51.588;7.328;2022-07-04T00:57:49;2.90;;;1.20;;
2326;SDS011;1174;51.588;7.328;2022-07-04T01:00:17;1.80;;;1.43;;
2326;SDS011;1174;51.588;7.328;2022-07-04T01:02:45;3.27;;;1.20;;
2326;SDS011;1174;51.588;7.328;2022-07-04T01:05:13;1.43;;;1.10;;
2326;SDS011;1174;51.588;7.328;2022-07-04T01:07:40;1.60;;;1.20;;
2326;SDS011;1174;51.588;7.328;2022-07-04T01:10:08;1.93;;;1.60;;
2326;SDS011;1174;51.588;7.328;2022-07-04T01:12:36;2.30;;;1.40;;
2326;SDS011;1174;51.588;7.328;2022-07-04T01:15:03;1.50;;;1.40;;
2326;SDS011;1174;51.588;7.328;2022-07-04T01:17:33;1.50;;;1.13;;
2326;SDS011;1174;51.588;7.328;2022-07-04T01:19:59;1.83;;;1.00;;
2326;SDS011;1174;51.588;7.328;2022-07-04T01:22:28;1.50;;;1.27;;
2326;SDS011;1174;51.588;7.328;2022-07-04T01:24:55;3.10;;;1.47;;
2326;SDS011;1174;51.588;7.328;2022-07-04T01:27:22;1.67;;;1.10;;
2326;SDS011;1174;51.588;7.328;2022-07-04T01:29:48;3.10;;;1.40;;
2326;SDS011;1174;51.588;7.328;2022-07-04T01:32:15;2.50;;;1.60;;
2326;SDS011;1174;51.588;7.328;2022-07-04T01:34:42;1.47;;;1.20;;
2326;SDS011;1174;51.588;7.328;2022-07-04T01:37:09;2.50;;;1.70;;
2326;SDS011;1174;51.588;7.328;2022-07-04T01:39:37;5.57;;;1.20;;
2326;SDS011;1174;51.588;7.328;2022-07-04T01:42:04;9.70;;;2.53;;
2326;SDS011;1174;51.588;7.328;2022-07-04T01:44:31;2.90;;;2.00;;
2326;SDS011;1174;51.588;7.328;2022-07-04T01:46:58;1.87;;;1.47;;
2326;SDS011;1174;51.588;7.328;2022-07-04T01:49:28;3.57;;;1.50;;
2326;SDS011;1174;51.588;7.328;2022-07-04T01:51:55;3.80;;;1.97;;
2326;SDS011;1174;51.588;7.328;2022-07-04T01:54:22;3.47;;;1.90;;
2326;SDS011;1174;51.588;7.328;2022-07-04T01:56:51;2.70;;;1.33;;
2326;SDS011;1174;51.588;7.328;2022-07-04T01:59:18;2.83;;;1.90;;
2326;SDS011;1174;51.588;7.328;2022-07-04T02:02:05;2.13;;;1.70;;
2326;SDS011;1174;51.588;7.328;2022-07-04T02:04:31;3.10;;;1.60;;
2326;SDS011;1174;51.588;7.328;2022-07-04T02:06:59;1.93;;;1.50;;
2326;SDS011;1174;51.588;7.328;2022-07-04T02:09:26;2.40;;;1.80;;
2326;SDS011;1174;51.588;7.328;2022-07-04T02:11:54;3.20;;;1.30;;
2326;SDS011;1174;51.588;7.328;2022-07-04T02:14:39;1.70;;;1.60;;
2326;SDS011;1174;51.588;7.328;2022-07-04T02:17:06;2.20;;;1.50;;
2326;SDS011;1174;51.588;7.328;2022-07-04T02:19:33;4.97;;;1.60;;
2326;SDS011;1174;51.588;7.328;2022-07-04T02:22:00;2.37;;;2.17;;
2326;SDS011;1174;51.588;7.328;2022-07-04T02:24:29;2.53;;;1.67;;
2326;SDS011;1174;51.588;7.328;2022-07-04T02:26:57;2.90;;;2.13;;
2326;SDS011;1174;51.588;7.328;2022-07-04T02:29:24;2.40;;;1.77;;
2326;SDS011;1174;51.588;7.328;2022-07-04T02:31:51;2.17;;;1.97;;
2326;SDS011;1174;51.588;7.328;2022-07-04T02:34:18;1.80;;;1.67;;
2326;SDS011;1174;51.588;7.328;2022-07-04T02:36:45;4.30;;;1.73;;
2326;SDS011;1174;51.588;7.328;2022-07-04T02:39:12;3.17;;;2.87;;
2326;SDS011;1174;51.588;7.328;2022-07-04T02:41:38;2.40;;;1.60;;
2326;SDS011;1174;51.588;7.328;2022-07-04T02:44:07;2.00;;;1.53;;
2326;SDS011;1174;51.588;7.328;2022-07-04T02:46:34;2.43;;;1.80;;
2326;SDS011;1174;51.588;7.328;2022-07-04T02:49:01;2.57;;;1.77;;
2326;SDS011;1174;51.588;7.328;2022-07-04T02:51:29;5.53;;;2.20;;
2326;SDS011;1174;51.588;7.328;2022-07-04T02:53:56;3.10;;;1.80;;
2326;SDS011;1174;51.588;7.328;2022-07-04T02:56:23;1.70;;;1.50;;
2326;SDS011;1174;51.588;7.328;2022-07-04T02:58:50;9.27;;;2.20;;
2326;SDS011;1174;51.588;7.328;2022-07-04T03:01:19;2.30;;;1.87;;
2326;SDS011;1174;51.588;7.328;2022-07-04T03:03:46;4.90;;;2.00;;
2326;SDS011;1174;51.588;7.328;2022-07-04T03:06:13;2.50;;;2.10;;
2326;SDS011;1174;51.588;7.328;2022-07-04T03:08:41;3.07;;;2.23;;
2326;SDS011;1174;51.588;7.328;2022-07-04T03:11:08;2.70;;;2.40;;
2326;SDS011;1174;51.588;7.328;2022-07-04T03:13:35;3.33;;;2.00;;
2326;SDS011;1174;51.588;7.328;2022-07-04T03:16:02;2.50;;;1.97;;
2326;SDS011;1174;51.588;7.328;2022-07-04T03:18:31;3.40;;;2.70;;
2326;SDS011;1174;51.588;7.328;2022-07-04T03:20:57;3.87;;;1.73;;
2326;SDS011;1174;51.588;7.328;2022-07-04T03:23:24;6.20;;;2.00;;
2326;SDS011;1174;51.588;7.328;2022-07-04T03:25:51;5.33;;;2.10;;
2326;SDS011;1174;51.588;7.328;2022-07-04T03:28:18;2.80;;;2.03;;
2326;SDS011;1174;51.588;7.328;2022-07-04T03:30:45;3.10;;;1.97;;
2326;SDS011;1174;51.588;7.328;2022-07-04T03:33:11;3.80;;;2.17;;
2326;SDS011;1174;51.588;7.328;2022-07-04T03:35:39;3.33;;;1.90;;
2326;SDS011;1174;51.588;7.328;2022-07-04T03:38:06;3.30;;;1.97;;
2326;SDS011;1174;51.588;7.328;2022-07-04T03:40:33;3.50;;;2.13;;
2326;SDS011;1174;51.588;7.328;2022-07-04T03:43:01;5.13;;;1.93;;
2326;SDS011;1174;51.588;7.328;2022-07-04T03:45:28;8.30;;;2.60;;
2326;SDS011;1174;51.588;7.328;2022-07-04T03:47:55;2.87;;;1.97;;
2326;SDS011;1174;51.588;7.328;2022-07-04T03:50:22;2.93;;;2.07;;
2326;SDS011;1174;51.588;7.328;2022-07-04T03:52:51;5.17;;;2.33;;
2326;SDS011;1174;51.588;7.328;2022-07-04T03:55:18;2.30;;;1.90;;
2326;SDS011;1174;51.588;7.328;2022-07-04T03:57:45;6.03;;;2.40;;
2326;SDS011;1174;51.588;7.328;2022-07-04T04:00:12;5.17;;;2.40;;
2326;SDS011;1174;51.588;7.328;2022-07-04T04:02:39;4.23;;;2.57;;
2326;SDS011;1174;51.588;7.328;2022-07-04T04:05:06;4.60;;;2.03;;
2326;SDS011;1174;51.588;7.328;2022-07-04T04:07:52;4.87;;;2.33;;
2326;SDS011;1174;51.588;7.328;2022-07-04T04:10:20;5.83;;;2.03;;
2326;SDS011;1174;51.588;7.328;2022-07-04T04:12:47;2.00;;;1.80;;
2326;SDS011;1174;51.588;7.328;2022-07-04T04:15:14;4.30;;;1.97;;
2326;SDS011;1174;51.588;7.328;2022-07-04T04:17:41;4.17;;;2.30;;
2326;SDS011;1174;51.588;7.328;2022-07-04T04:20:08;6.50;;;2.53;;
2326;SDS011;1174;51.588;7.328;2022-07-04T04:22:36;3.37;;;2.33;;
2326;SDS011;1174;51.588;7.328;2022-07-04T04:25:05;2.60;;;2.10;;
2326;SDS011;1174;51.588;7.328;2022-07-04T04:27:32;11.93;;;2.80;;
2326;SDS011;1174;51.588;7.328;2022-07-04T04:29:59;3.70;;;2.17;;
2326;SDS011;1174;51.588;7.328;2022-07-04T04:32:26;2.73;;;2.37;;
2326;SDS011;1174;51.588;7.328;2022-07-04T04:34:54;4.90;;;3.40;;
2326;SDS011;1174;51.588;7.328;2022-07-04T04:37:20;2.13;;;1.93;;
2326;SDS011;1174;51.588;7.328;2022-07-04T04:39:47;13.63;;;3.97;;
2326;SDS011;1174;51.588;7.328;2022-07-04T04:42:16;3.90;;;3.00;;
2326;SDS011;1174;51.588;7.328;2022-07-04T04:44:42;3.07;;;1.90;;
2326;SDS011;1174;51.588;7.328;2022-07-04T04:47:09;3.00;;;1.90;;
2326;SDS011;1174;51.588;7.328;2022-07-04T04:49:36;3.00;;;2.00;;
2326;SDS011;1174;51.588;7.328;2022-07-04T04:52:03;6.63;;;3.10;;
2326;SDS011;1174;51.588;7.328;2022-07-04T04:54:30;3.03;;;2.73;;
2326;SDS011;1174;51.588;7.328;2022-07-04T04:56:57;3.27;;;2.70;;
2326;SDS011;1174;51.588;7.328;2022-07-04T04:59:26;2.50;;;2.30;;
2326;SDS011;1174;51.588;7.328;2022-07-04T05:01:54;8.37;;;4.20;;
2326;SDS011;1174;51.588;7.328;2022-07-04T05:04:21;3.33;;;2.50;;
2326;SDS011;1174;51.588;7.328;2022-07-04T05:06:48;3.40;;;2.43;;
2326;SDS011;1174;51.588;7.328;2022-07-04T05:09:15;7.60;;;3.03;;
2326;SDS011;1174;51.588;7.328;2022-07-04T05:11:42;5.80;;;2.90;;
2326;SDS011;1174;51.588;7.328;2022-07-04T05:14:09;4.57;;;2.90;;
2326;SDS011;1174;51.588;7.328;2022-07-04T05:16:37;8.63;;;3.60;;
2326;SDS011;1174;51.588;7.328;2022-07-04T05:19:04;5.20;;;3.40;;
2326;SDS011;1174;51.588;7.328;2022-07-04T05:21:31;4.50;;;3.20;;
2326;SDS011;1174;51.588;7.328;2022-07-04T05:23:58;6.00;;;4.20;;
2326;SDS011;1174;51.588;7.328;2022-07-04T05:26:25;4.90;;;3.73;;
2326;SDS011;1174;51.588;7.328;2022-07-04T05:28:52;5.50;;;2.90;;
2326;SDS011;1174;51.588;7.328;2022-07-04T05:31:20;5.37;;;4.00;;
2326;SDS011;1174;51.588;7.328;2022-07-04T05:33:50;4.20;;;3.30;;
2326;SDS011;1174;51.588;7.328;2022-07-04T05:36:18;5.40;;;3.70;;
2326;SDS011;1174;51.588;7.328;2022-07-04T05:38:45;3.50;;;3.10;;
2326;SDS011;1174;51.588;7.328;2022-07-04T05:41:12;5.60;;;2.97;;
2326;SDS011;1174;51.588;7.328;2022-07-04T05:43:39;4.07;;;2.73;;
2326;SDS011;1174;51.588;7.328;2022-07-04T05:46:06;3.50;;;2.70;;
2326;SDS011;1174;51.588;7.328;2022-07-04T05:48:33;5.40;;;3.50;;
2326;SDS011;1174;51.588;7.328;2022-07-04T05:51:01;10.33;;;3.83;;
2326;SDS011;1174;51.588;7.328;2022-07-04T05:53:28;10.53;;;3.70;;
2326;SDS011;1174;51.588;7.328;2022-07-04T05:55:55;13.13;;;3.70;;
2326;SDS011;1174;51.588;7.328;2022-07-04T05:58:22;8.13;;;4.10;;
2326;SDS011;1174;51.588;7.328;2022-07-04T06:00:49;6.50;;;4.40;;
2326;SDS011;1174;51.588;7.328;2022-07-04T06:03:16;3.33;;;3.00;;
2326;SDS011;1174;51.588;7.328;2022-07-04T06:05:43;6.07;;;4.10;;
2326;SDS011;1174;51.588;7.328;2022-07-04T06:08:11;5.40;;;2.40;;
2326;SDS011;1174;51.588;7.328;2022-07-04T06:10:38;8.60;;;3.27;;
2326;SDS011;1174;51.588;7.328;2022-07-04T06:13:05;5.50;;;3.50;;
2326;SDS011;1174;51.588;7.328;2022-07-04T06:15:32;5.40;;;3.30;;
2326;SDS011;1174;51.588;7.328;2022-07-04T06:17:59;3.57;;;2.83;;
2326;SDS011;1174;51.588;7.328;2022-07-04T06:20:27;4.33;;;3.33;;
2326;SDS011;1174;51.588;7.328;2022-07-04T06:22:55;4.20;;;2.53;;
2326;SDS011;1174;51.588;7.328;2022-07-04T06:25:24;5.73;;;2.63;;
2326;SDS011;1174;51.588;7.328;2022-07-04T06:27:50;6.37;;;2.93;;
2326;SDS011;1174;51.588;7.328;2022-07-04T06:30:18;3.47;;;2.50;;
2326;SDS011;1174;51.588;7.328;2022-07-04T06:32:45;3.90;;;2.23;;
2326;SDS011;1174;51.588;7.328;2022-07-04T06:35:13;3.50;;;1.60;;
2326;SDS011;1174;51.588;7.328;2022-07-04T06:38:00;2.50;;;1.80;;
2326;SDS011;1174;51.588;7.328;2022-07-04T06:40:29;3.60;;;2.53;;
2326;SDS011;1174;51.588;7.328;2022-07-04T06:42:56;2.80;;;2.30;;
2326;SDS011;1174;51.588;7.328;2022-07-04T06:45:22;3.83;;;2.40;;
2326;SDS011;1174;51.588;7.328;2022-07-04T06:47:49;3.17;;;2.07;;
2326;SDS011;1174;51.588;7.328;2022-07-04T06:50:16;5.20;;;2.30;;
2326;SDS011;1174;51.588;7.328;2022-07-04T06:52:44;2.90;;;1.80;;
2326;SDS011;1174;51.588;7.328;2022-07-04T06:55:11;5.00;;;2.20;;
2326;SDS011;1174;51.588;7.328;2022-07-04T06:57:39;4.63;;;2.40;;
2326;SDS011;1174;51.588;7.328;2022-07-04T07:00:07;7.23;;;2.90;;
2326;SDS011;1174;51.588;7.328;2022-07-04T07:02:35;3.90;;;2.50;;
2326;SDS011;1174;51.588;7.328;2022-07-04T07:05:03;5.23;;;3.07;;
2326;SDS011;1174;51.588;7.328;2022-07-04T07:07:30;4.03;;;2.50;;
2326;SDS011;1174;51.588;7.328;2022-07-04T07:09:57;7.00;;;2.73;;
2326;SDS011;1174;51.588;7.328;2022-07-04T07:12:24;4.13;;;2.13;;
2326;SDS011;1174;51.588;7.328;2022-07-04T07:14:52;6.23;;;1.87;;
2326;SDS011;1174;51.588;7.328;2022-07-04T07:17:19;3.97;;;2.43;;
2326;SDS011;1174;51.588;7.328;2022-07-04T07:19:47;7.73;;;3.10;;
2326;SDS011;1174;51.588;7.328;2022-07-04T07:22:14;5.93;;;2.87;;
2326;SDS011;1174;51.588;7.328;2022-07-04T07:24:41;6.57;;;3.00;;
2326;SDS011;1174;51.588;7.328;2022-07-04T07:27:08;6.37;;;3.03;;
2326;SDS011;1174;51.588;7.328;2022-07-04T07:29:36;3.80;;;2.00;;
2326;SDS011;1174;51.588;7.328;2022-07-04T07:32:05;3.93;;;2.43;;
2326;SDS011;1174;51.588;7.328;2022-07-04T07:34:33;2.90;;;1.70;;
2326;SDS011;1174;51.588;7.328;2022-07-04T07:37:00;2.27;;;1.47;;
2326;SDS011;1174;51.588;7.328;2022-07-04T07:39:27;2.70;;;1.73;;
2326;SDS011;1174;51.588;7.328;2022-07-04T07:41:53;2.10;;;1.10;;
2326;SDS011;1174;51.588;7.328;2022-07-04T07:44:20;6.37;;;1.33;;
2326;SDS011;1174;51.588;7.328;2022-07-04T07:46:47;1.97;;;1.30;;
2326;SDS011;1174;51.588;7.328;2022-07-04T07:49:15;2.60;;;1.90;;
2326;SDS011;1174;51.588;7.328;2022-07-04T07:51:42;3.00;;;1.63;;
2326;SDS011;1174;51.588;7.328;2022-07-04T07:54:09;3.53;;;2.03;;
2326;SDS011;1174;51.588;7.328;2022-07-04T07:56:36;5.97;;;1.70;;
2326;SDS011;1174;51.588;7.328;2022-07-04T07:59:03;4.27;;;2.17;;
2326;SDS011;1174;51.588;7.328;2022-07-04T08:01:30;6.37;;;1.80;;
2326;SDS011;1174;51.588;7.328;2022-07-04T08:03:57;2.63;;;1.30;;
2326;SDS011;1174;51.588;7.328;2022-07-04T08:06:42;2.10;;;1.37;;
2326;SDS011;1174;51.588;7.328;2022-07-04T08:09:09;2.37;;;1.70;;
2326;SDS011;1174;51.588;7.328;2022-07-04T08:11:36;4.73;;;1.77;;
2326;SDS011;1174;51.588;7.328;2022-07-04T08:14:03;3.60;;;2.27;;
2326;SDS011;1174;51.588;7.328;2022-07-04T08:16:31;7.50;;;3.13;;
2326;SDS011;1174;51.588;7.328;2022-07-04T08:18:58;3.50;;;2.03;;
2326;SDS011;1174;51.588;7.328;2022-07-04T08:21:25;6.27;;;2.37;;
2326;SDS011;1174;51.588;7.328;2022-07-04T08:23:54;6.00;;;3.10;;
2326;SDS011;1174;51.588;7.328;2022-07-04T08:26:21;3.70;;;2.77;;
2326;SDS011;1174;51.588;7.328;2022-07-04T08:28:48;4.20;;;2.07;;
2326;SDS011;1174;51.588;7.328;2022-07-04T08:31:16;3.03;;;2.00;;
2326;SDS011;1174;51.588;7.328;2022-07-04T08:33:46;1.80;;;1.50;;
2326;SDS011;1174;51.588;7.328;2022-07-04T08:36:13;4.37;;;1.63;;
2326;SDS011;1174;51.588;7.328;2022-07-04T08:38:40;6.80;;;2.00;;
2326;SDS011;1174;51.588;7.328;2022-07-04T08:41:08;5.87;;;2.47;;
2326;SDS011;1174;51.588;7.328;2022-07-04T08:43:35;5.53;;;2.27;;
2326;SDS011;1174;51.588;7.328;2022-07-04T08:46:03;7.60;;;1.90;;
2326;SDS011;1174;51.588;7.328;2022-07-04T08:48:31;3.23;;;2.07;;
2326;SDS011;1174;51.588;7.328;2022-07-04T08:50:59;3.07;;;1.60;;
2326;SDS011;1174;51.588;7.328;2022-07-04T08:53:36;2.00;;;1.53;;
2326;SDS011;1174;51.588;7.328;2022-07-04T08:56:06;2.97;;;1.30;;
2326;SDS011;1174;51.588;7.328;2022-07-04T08:59:04;4.93;;;1.50;;
2326;SDS011;1174;51.588;7.328;2022-07-04T09:01:32;11.87;;;3.40;;
2326;SDS011;1174;51.588;7.328;2022-07-04T09:03:59;1.60;;;1.10;;
2326;SDS011;1174;51.588;7.328;2022-07-04T09:06:27;3.47;;;1.60;;
2326;SDS011;1174;51.588;7.328;2022-07-04T09:08:54;5.50;;;3.00;;
2326;SDS011;1174;51.588;7.328;2022-07-04T09:11:21;1.93;;;1.37;;
2326;SDS011;1174;51.588;7.328;2022-07-04T09:13:48;1.50;;;1.40;;
2326;SDS011;1174;51.588;7.328;2022-07-04T09:16:16;3.53;;;1.67;;
2326;SDS011;1174;51.588;7.328;2022-07-04T09:18:43;3.53;;;1.60;;
2326;SDS011;1174;51.588;7.328;2022-07-04T09:21:10;7.63;;;2.10;;
2326;SDS011;1174;51.588;7.328;2022-07-04T09:23:38;2.83;;;1.20;;
2326;SDS011;1174;51.588;7.328;2022-07-04T09:26:07;7.33;;;1.67;;
2326;SDS011;1174;51.588;7.328;2022-07-04T09:28:36;3.20;;;1.70;;
2326;SDS011;1174;51.588;7.328;2022-07-04T09:31:19;2.33;;;1.60;;
2326;SDS011;1174;51.588;7.328;2022-07-04T09:33:49;1.80;;;1.20;;
2326;SDS011;1174;51.588;7.328;2022-07-04T09:36:18;1.43;;;1.07;;
2326;SDS011;1174;51.588;7.328;2022-07-04T09:38:47;3.30;;;1.30;;
2326;SDS011;1174;51.588;7.328;2022-07-04T09:41:49;2.13;;;1.27;;
2326;SDS011;1174;51.588;7.328;2022-07-04T09:44:20;3.20;;;1.70;;
2326;SDS011;1174;51.588;7.328;2022-07-04T09:46:49;3.03;;;2.00;;
2326;SDS011;1174;51.588;7.328;2022-07-04T09:49:16;2.93;;;1.50;;
2326;SDS011;1174;51.588;7.328;2022-07-04T09:51:44;2.03;;;1.70;;
2326;SDS011;1174;51.588;7.328;2022-07-04T09:54:13;2.47;;;1.80;;
2326;SDS011;1174;51.588;7.328;2022-07-04T09:56:41;2.83;;;1.70;;
2326;SDS011;1174;51.588;7.328;2022-07-04T09:59:09;3.43;;;1.77;;
2326;SDS011;1174;51.588;7.328;2022-07-04T10:01:36;1.97;;;1.03;;
2326;SDS011;1174;51.588;7.328;2022-07-04T10:04:05;2.30;;;1.37;;
2326;SDS011;1174;51.588;7.328;2022-07-04T10:06:33;3.33;;;1.27;;
2326;SDS011;1174;51.588;7.328;2022-07-04T10:09:06;3.87;;;1.43;;
2326;SDS011;1174;51.588;7.328;2022-07-04T10:11:35;7.13;;;2.60;;
2326;SDS011;1174;51.588;7.328;2022-07-04T10:14:04;1.67;;;1.10;;
2326;SDS011;1174;51.588;7.328;2022-07-04T10:16:32;2.80;;;1.63;;
2326;SDS011;1174;51.588;7.328;2022-07-04T10:18:59;6.20;;;2.13;;
2326;SDS011;1174;51.588;7.328;2022-07-04T10:21:27;1.90;;;1.10;;
2326;SDS011;1174;51.588;7.328;2022-07-04T10:23:55;4.37;;;1.50;;
2326;SDS011;1174;51.588;7.328;2022-07-04T10:26:22;2.40;;;1.30;;
2326;SDS011;1174;51.588;7.328;2022-07-04T10:28:49;3.00;;;1.30;;
2326;SDS011;1174;51.588;7.328;2022-07-04T10:31:17;2.60;;;1.17;;
2326;SDS011;1174;51.588;7.328;2022-07-04T10:33:46;2.37;;;1.60;;
2326;SDS011;1174;51.588;7.328;2022-07-04T10:36:14;4.57;;;1.40;;
2326;SDS011;1174;51.588;7.328;2022-07-04T10:38:47;3.53;;;1.43;;
2326;SDS011;1174;51.588;7.328;2022-07-04T10:41:15;2.07;;;1.17;;
2326;SDS011;1174;51.588;7.328;2022-07-04T10:43:53;2.53;;;1.30;;
2326;SDS011;1174;51.588;7.328;2022-07-04T10:46:34;1.37;;;1.20;;
2326;SDS011;1174;51.588;7.328;2022-07-04T10:49:24;3.00;;;1.80;;
2326;SDS011;1174;51.588;7.328;2022-07-04T10:51:53;3.37;;;1.57;;
2326;SDS011;1174;51.588;7.328;2022-07-04T10:54:27;3.47;;;2.13;;
2326;SDS011;1174;51.588;7.328;2022-07-04T10:56:57;2.93;;;1.60;;
2326;SDS011;1174;51.588;7.328;2022-07-04T10:59:34;3.20;;;1.40;;
2326;SDS011;1174;51.588;7.328;2022-07-04T11:04:52;3.17;;;1.30;;
2326;SDS011;1174;51.588;7.328;2022-07-04T11:10:25;4.60;;;1.43;;
2326;SDS011;1174;51.588;7.328;2022-07-04T11:16:06;2.30;;;1.33;;
2326;SDS011;1174;51.588;7.328;2022-07-04T11:18:40;3.80;;;1.33;;
2326;SDS011;1174;51.588;7.328;2022-07-04T11:21:18;3.07;;;2.00;;
2326;SDS011;1174;51.588;7.328;2022-07-04T11:23:49;1.90;;;1.10;;
2326;SDS011;1174;51.588;7.328;2022-07-04T11:26:20;2.13;;;1.30;;
2326;SDS011;1174;51.588;7.328;2022-07-04T11:28:47;2.90;;;1.40;;
2326;SDS011;1174;51.588;7.328;2022-07-04T11:31:14;1.70;;;1.50;;
2326;SDS011;1174;51.588;7.328;2022-07-04T11:33:41;2.07;;;1.37;;
2326;SDS011;1174;51.588;7.328;2022-07-04T11:36:10;1.73;;;1.60;;
2326;SDS011;1174;51.588;7.328;2022-07-04T11:38:43;3.33;;;1.40;;
2326;SDS011;1174;51.588;7.328;2022-07-04T11:41:22;5.77;;;1.77;;
2326;SDS011;1174;51.588;7.328;2022-07-04T11:44:09;2.47;;;1.57;;
2326;SDS011;1174;51.588;7.328;2022-07-04T11:47:01;2.97;;;1.30;;
2326;SDS011;1174;51.588;7.328;2022-07-04T11:49:29;2.37;;;1.73;;
2326;SDS011;1174;51.588;7.328;2022-07-04T11:51:56;1.87;;;1.77;;
2326;SDS011;1174;51.588;7.328;2022-07-04T11:54:23;2.43;;;1.20;;
2326;SDS011;1174;51.588;7.328;2022-07-04T11:56:51;1.73;;;1.13;;
2326;SDS011;1174;51.588;7.328;2022-07-04T11:59:18;3.30;;;1.40;;
2326;SDS011;1174;51.588;7.328;2022-07-04T12:01:46;2.90;;;1.30;;
2326;SDS011;1174;51.588;7.328;2022-07-04T12:04:14;1.60;;;1.33;;
2326;SDS011;1174;51.588;7.328;2022-07-04T12:06:42;2.53;;;1.33;;
2326;SDS011;1174;51.588;7.328;2022-07-04T12:09:10;2.67;;;1.40;;
2326;SDS011;1174;51.588;7.328;2022-07-04T12:11:51;2.60;;;1.30;;
2326;SDS011;1174;51.588;7.328;2022-07-04T12:14:19;2.27;;;1.20;;
2326;SDS011;1174;51.588;7.328;2022-07-04T12:16:47;2.47;;;1.30;;
2326;SDS011;1174;51.588;7.328;2022-07-04T12:19:14;4.63;;;1.77;;
2326;SDS011;1174;51.588;7.328;2022-07-04T12:21:41;7.03;;;1.70;;
2326;SDS011;1174;51.588;7.328;2022-07-04T12:24:09;2.93;;;2.63;;
2326;SDS011;1174;51.588;7.328;2022-07-04T12:26:44;3.50;;;1.50;;
2326;SDS011;1174;51.588;7.328;2022-07-04T12:29:13;1.50;;;1.10;;
2326;SDS011;1174;51.588;7.328;2022-07-04T12:31:50;4.90;;;1.60;;
2326;SDS011;1174;51.588;7.328;2022-07-04T12:34:18;2.03;;;1.27;;
2326;SDS011;1174;51.588;7.328;2022-07-04T12:36:49;3.80;;;1.33;;
2326;SDS011;1174;51.588;7.328;2022-07-04T12:39:31;2.00;;;1.37;;
2326;SDS011;1174;51.588;7.328;2022-07-04T12:42:09;1.40;;;1.10;;
2326;SDS011;1174;51.588;7.328;2022-07-04T12:44:39;1.67;;;1.30;;
2326;SDS011;1174;51.588;7.328;2022-07-04T12:47:07;1.50;;;1.30;;
2326;SDS011;1174;51.588;7.328;2022-07-04T12:49:35;1.70;;;1.20;;
2326;SDS011;1174;51.588;7.328;2022-07-04T12:52:05;4.50;;;2.17;;
2326;SDS011;1174;51.588;7.328;2022-07-04T12:54:34;2.10;;;1.07;;
2326;SDS011;1174;51.588;7.328;2022-07-04T12:57:08;2.80;;;2.00;;
2326;SDS011;1174;51.588;7.328;2022-07-04T12:59:39;2.80;;;1.60;;
2326;SDS011;1174;51.588;7.328;2022-07-04T13:02:06;2.80;;;1.40;;
2326;SDS011;1174;51.588;7.328;2022-07-04T13:04:34;2.13;;;1.60;;
2326;SDS011;1174;51.588;7.328;2022-07-04T13:07:11;3.07;;;1.30;;
2326;SDS011;1174;51.588;7.328;2022-07-04T13:09:40;1.77;;;1.50;;
2326;SDS011;1174;51.588;7.328;2022-07-04T13:12:07;1.80;;;1.20;;
2326;SDS011;1174;51.588;7.328;2022-07-04T13:14:55;6.83;;;2.03;;
2326;SDS011;1174;51.588;7.328;2022-07-04T13:17:24;1.67;;;1.20;;
2326;SDS011;1174;51.588;7.328;2022-07-04T13:19:51;2.07;;;1.53;;
2326;SDS011;1174;51.588;7.328;2022-07-04T13:22:19;1.53;;;1.30;;
2326;SDS011;1174;51.588;7.328;2022-07-04T13:24:47;2.23;;;1.20;;
2326;SDS011;1174;51.588;7.328;2022-07-04T13:27:14;2.67;;;1.63;;
2326;SDS011;1174;51.588;7.328;2022-07-04T13:29:41;1.87;;;1.30;;
2326;SDS011;1174;51.588;7.328;2022-07-04T13:32:10;1.30;;;1.07;;
2326;SDS011;1174;51.588;7.328;2022-07-04T13:34:37;2.17;;;1.40;;
2326;SDS011;1174;51.588;7.328;2022-07-04T13:37:04;4.13;;;1.77;;
2326;SDS011;1174;51.588;7.328;2022-07-04T13:39:31;1.73;;;1.50;;
2326;SDS011;1174;51.588;7.328;2022-07-04T13:41:58;2.50;;;1.20;;
2326;SDS011;1174;51.588;7.328;2022-07-04T13:44:26;1.83;;;1.20;;
2326;SDS011;1174;51.588;7.328;2022-07-04T13:46:53;2.50;;;1.20;;
2326;SDS011;1174;51.588;7.328;2022-07-04T13:49:22;2.83;;;2.03;;
2326;SDS011;1174;51.588;7.328;2022-07-04T13:51:49;2.07;;;1.43;;
2326;SDS011;1174;51.588;7.328;2022-07-04T13:54:16;2.13;;;1.43;;
2326;SDS011;1174;51.588;7.328;2022-07-04T13:56:43;2.33;;;1.30;;
2326;SDS011;1174;51.588;7.328;2022-07-04T13:59:10;2.00;;;1.50;;
2326;SDS011;1174;51.588;7.328;2022-07-04T14:01:37;1.37;;;1.07;;
2326;SDS011;1174;51.588;7.328;2022-07-04T14:04:04;2.50;;;1.10;;
2326;SDS011;1174;51.588;7.328;2022-07-04T14:06:32;4.53;;;1.30;;
2326;SDS011;1174;51.588;7.328;2022-07-04T14:08:59;2.30;;;1.30;;
2326;SDS011;1174;51.588;7.328;2022-07-04T14:11:26;1.73;;;1.33;;
2326;SDS011;1174;51.588;7.328;2022-07-04T14:13:53;3.20;;;1.47;;
2326;SDS011;1174;51.588;7.328;2022-07-04T14:16:20;2.27;;;1.60;;
2326;SDS011;1174;51.588;7.328;2022-07-04T14:18:47;4.20;;;1.73;;
2326;SDS011;1174;51.588;7.328;2022-07-04T14:21:14;1.90;;;1.50;;
2326;SDS011;1174;51.588;7.328;2022-07-04T14:23:42;1.47;;;1.17;;
2326;SDS011;1174;51.588;7.328;2022-07-04T14:26:11;1.47;;;1.13;;
2326;SDS011;1174;51.588;7.328;2022-07-04T14:28:39;3.53;;;1.30;;
2326;SDS011;1174;51.588;7.328;2022-07-04T14:31:06;2.50;;;1.40;;
2326;SDS011;1174;51.588;7.328;2022-07-04T14:33:33;1.37;;;1.00;;
2326;SDS011;1174;51.588;7.328;2022-07-04T14:36:00;2.47;;;1.63;;
2326;SDS011;1174;51.588;7.328;2022-07-04T14:38:28;1.40;;;1.00;;
2326;SDS011;1174;51.588;7.328;2022-07-04T14:40:56;1.40;;;1.00;;
2326;SDS011;1174;51.588;7.328;2022-07-04T14:43:35;4.90;;;1.60;;
2326;SDS011;1174;51.588;7.328;2022-07-04T14:46:05;1.93;;;1.40;;
2326;SDS011;1174;51.588;7.328;2022-07-04T14:48:32;2.37;;;1.60;;
2326;SDS011;1174;51.588;7.328;2022-07-04T14:51:00;10.97;;;1.67;;
2326;SDS011;1174;51.588;7.328;2022-07-04T14:53:27;2.67;;;1.43;;
2326;SDS011;1174;51.588;7.328;2022-07-04T14:55:54;2.23;;;1.43;;
2326;SDS011;1174;51.588;7.328;2022-07-04T14:58:22;5.10;;;1.80;;
2326;SDS011;1174;51.588;7.328;2022-07-04T15:00:49;1.53;;;1.20;;
2326;SDS011;1174;51.588;7.328;2022-07-04T15:03:16;2.43;;;2.23;;
2326;SDS011;1174;51.588;7.328;2022-07-04T15:05:43;6.73;;;1.37;;
2326;SDS011;1174;51.588;7.328;2022-07-04T15:08:10;1.67;;;1.37;;
2326;SDS011;1174;51.588;7.328;2022-07-04T15:10:37;1.80;;;1.50;;
2326;SDS011;1174;51.588;7.328;2022-07-04T15:13:05;3.20;;;1.73;;
2326;SDS011;1174;51.588;7.328;2022-07-04T15:15:33;3.87;;;1.67;;
2326;SDS011;1174;51.588;7.328;2022-07-04T15:18:00;2.77;;;1.77;;
2326;SDS011;1174;51.588;7.328;2022-07-04T15:20:27;2.17;;;1.43;;
2326;SDS011;1174;51.588;7.328;2022-07-04T15:23:12;2.10;;;1.80;;
2326;SDS011;1174;51.588;7.328;2022-07-04T15:25:57;1.77;;;1.67;;
2326;SDS011;1174;51.588;7.328;2022-07-04T15:28:25;2.13;;;1.53;;
2326;SDS011;1174;51.588;7.328;2022-07-04T15:30:52;5.03;;;1.50;;
2326;SDS011;1174;51.588;7.328;2022-07-04T15:33:19;1.97;;;1.23;;